createdAt,value
2023-01-26T00:04:35.974Z,22.70
2023-01-26T00:09:40.215Z,22.60
2023-01-26T00:14:50.335Z,22.60
2023-01-26T00:19:56.051Z,22.50
2023-01-26T00:25:00.429Z,22.50
2023-01-26T00:30:05.312Z,22.40
2023-01-26T00:35:10.105Z,22.30
2023-01-26T00:40:14.278Z,22.30
2023-01-26T00:45:18.470Z,22.20
2023-01-26T00:50:22.610Z,22.10
2023-01-26T00:55:32.723Z,22.10
2023-01-26T01:00:38.917Z,22.00
2023-01-26T01:05:43.298Z,22.00
2023-01-26T01:10:49.796Z,21.90
2023-01-26T01:15:54.179Z,21.90
2023-01-26T01:20:58.371Z,21.90
2023-01-26T01:26:03.441Z,21.80
2023-01-26T01:31:09.581Z,21.80
2023-01-26T01:36:16.197Z,21.70
2023-01-26T01:41:23.087Z,21.70
2023-01-26T01:46:36.029Z,21.70
2023-01-26T01:51:48.865Z,21.70
2023-01-26T01:56:55.453Z,21.60
2023-01-26T02:02:00.015Z,21.50
2023-01-26T02:07:05.670Z,21.70
2023-01-26T02:12:13.368Z,22.10
2023-01-26T02:17:17.308Z,22.40
2023-01-26T02:22:55.845Z,22.60
2023-01-26T02:28:01.098Z,22.80
2023-01-26T02:33:05.319Z,22.90
2023-01-26T02:38:10.493Z,23.00
2023-01-26T02:43:14.617Z,23.10
2023-01-26T02:48:37.391Z,23.10
2023-01-26T02:53:41.510Z,23.10
2023-01-26T02:58:46.053Z,23.20
2023-01-26T03:03:50.297Z,23.20
2023-01-26T03:08:57.094Z,23.20
2023-01-26T03:14:01.163Z,23.20
2023-01-26T03:19:31.559Z,23.30
2023-01-26T03:24:54.217Z,23.30
2023-01-26T03:29:59.067Z,23.40
2023-01-26T03:35:04.027Z,23.40
2023-01-26T03:40:27.702Z,23.50
2023-01-26T03:45:50.666Z,23.50
2023-01-26T03:51:14.652Z,23.60
2023-01-26T03:56:19.708Z,23.60
2023-01-26T04:01:33.363Z,23.40
2023-01-26T04:06:58.378Z,23.40
2023-01-26T04:12:03.224Z,23.30
2023-01-26T04:17:26.372Z,23.40
2023-01-26T04:22:31.681Z,23.30
2023-01-26T04:27:35.677Z,23.10
2023-01-26T04:32:41.468Z,22.90
2023-01-26T04:37:45.953Z,22.80
2023-01-26T04:42:50.951Z,22.70
2023-01-26T04:47:55.288Z,22.60
2023-01-26T04:52:59.116Z,22.50
2023-01-26T04:58:04.007Z,22.50
2023-01-26T05:03:10.370Z,22.40
2023-01-26T05:08:15.207Z,22.30
2023-01-26T05:13:19.733Z,22.30
2023-01-26T05:18:42.922Z,22.20
2023-01-26T05:24:06.319Z,22.20
2023-01-26T05:29:33.263Z,22.10
2023-01-26T05:34:38.810Z,22.10
2023-01-26T05:39:43.369Z,22.00
2023-01-26T05:44:47.276Z,22.00
2023-01-26T05:49:52.766Z,21.90
2023-01-26T05:55:05.780Z,21.90
2023-01-26T06:00:13.208Z,21.80
2023-01-26T06:05:25.014Z,21.80
2023-01-26T06:10:29.882Z,22.00
2023-01-26T06:15:52.518Z,22.40
2023-01-26T06:21:01.683Z,22.60
2023-01-26T06:26:09.913Z,22.90
2023-01-26T06:31:15.832Z,23.00
2023-01-26T06:36:20.524Z,23.10
2023-01-26T06:41:25.787Z,23.10
2023-01-26T06:46:30.031Z,23.10
2023-01-26T06:51:54.265Z,23.20
2023-01-26T06:57:02.141Z,23.20
2023-01-26T07:02:26.521Z,23.30
2023-01-26T07:07:30.770Z,23.10
2023-01-26T07:12:43.494Z,23.10
2023-01-26T07:17:47.523Z,23.20
2023-01-26T07:22:52.385Z,23.30
2023-01-26T07:28:00.622Z,23.40
2023-01-26T07:33:05.050Z,23.50
2023-01-26T07:38:09.192Z,23.60
2023-01-26T07:43:15.419Z,23.60
2023-01-26T07:48:26.063Z,23.70
2023-01-26T07:53:31.275Z,23.70
2023-01-26T07:58:36.503Z,23.70
2023-01-26T08:03:41.627Z,23.70
2023-01-26T08:08:46.981Z,23.60
2023-01-26T08:13:51.037Z,23.40
2023-01-26T08:18:55.053Z,23.30
2023-01-26T08:24:02.288Z,23.30
2023-01-26T08:29:06.321Z,23.20
2023-01-26T08:34:10.228Z,23.10
2023-01-26T08:39:14.048Z,23.10
2023-01-26T08:44:18.093Z,23.10
2023-01-26T08:49:22.331Z,22.90
2023-01-26T08:54:26.246Z,22.70
2023-01-26T08:59:30.480Z,22.70
2023-01-26T09:04:34.533Z,22.60
2023-01-26T09:09:39.184Z,22.50
2023-01-26T09:14:43.095Z,22.50
2023-01-26T09:19:47.125Z,22.40
2023-01-26T09:24:51.361Z,22.30
2023-01-26T09:29:56.439Z,22.30
2023-01-26T09:35:00.343Z,22.10
2023-01-26T09:40:05.370Z,22.10
2023-01-26T09:45:15.390Z,22.00
2023-01-26T09:50:27.803Z,21.90
2023-01-26T09:55:32.243Z,21.80
2023-01-26T10:00:50.134Z,21.80
2023-01-26T10:06:22.260Z,21.80
2023-01-26T10:11:56.183Z,22.20
2023-01-26T10:17:01.550Z,22.50
2023-01-26T10:22:20.285Z,22.70
2023-01-26T10:27:24.228Z,22.90
2023-01-26T10:32:28.376Z,23.00
2023-01-26T10:37:35.028Z,23.00
2023-01-26T10:42:40.296Z,23.10
2023-01-26T10:48:02.162Z,23.00
2023-01-26T10:53:05.895Z,23.00
2023-01-26T10:58:55.368Z,23.10
2023-01-26T11:04:02.470Z,23.30
2023-01-26T11:09:15.502Z,23.40
2023-01-26T11:14:20.259Z,23.50
2023-01-26T11:20:15.570Z,23.60
2023-01-26T11:25:31.033Z,23.60
2023-01-26T11:30:40.830Z,23.70
2023-01-26T11:36:14.308Z,23.90
2023-01-26T11:41:28.355Z,23.90
2023-01-26T11:46:37.519Z,23.90
2023-01-26T11:52:15.628Z,24.00
2023-01-26T11:57:27.543Z,24.00
2023-01-26T12:02:38.575Z,24.10
2023-01-26T12:07:57.851Z,24.10
2023-01-26T12:13:13.007Z,24.10
2023-01-26T12:18:42.255Z,24.10
2023-01-26T12:24:04.088Z,23.90
2023-01-26T12:29:27.099Z,23.70
2023-01-26T12:34:34.315Z,23.60
2023-01-26T12:39:46.368Z,23.40
2023-01-26T12:44:53.450Z,23.20
2023-01-26T12:50:06.487Z,23.10
2023-01-26T12:55:21.561Z,23.10
2023-01-26T13:00:31.252Z,23.10
2023-01-26T13:05:36.875Z,23.00
2023-01-26T13:10:50.327Z,22.90
2023-01-26T13:16:16.185Z,22.70
2023-01-26T13:21:39.998Z,22.60
2023-01-26T13:26:46.639Z,22.60
2023-01-26T13:31:51.184Z,22.60
2023-01-26T13:37:19.774Z,22.60
2023-01-26T13:42:28.632Z,22.50
2023-01-26T13:47:39.632Z,22.60
2023-01-26T13:52:43.731Z,22.40
2023-01-26T13:57:49.989Z,22.50
2023-01-26T14:02:54.919Z,22.50
2023-01-26T14:08:00.158Z,22.40
2023-01-26T14:13:05.066Z,22.30
2023-01-26T14:18:22.113Z,22.30
2023-01-26T14:23:33.264Z,22.20
2023-01-26T14:35:23.453Z,22.10
2023-01-26T14:40:31.785Z,22.00
2023-01-26T14:45:41.296Z,21.90
2023-01-26T14:50:47.161Z,21.90
2023-01-26T14:55:52.438Z,21.90
2023-01-26T15:00:59.248Z,21.90
2023-01-26T15:06:15.867Z,22.00
2023-01-26T15:11:51.495Z,22.20
2023-01-26T15:16:55.635Z,22.50
2023-01-26T15:22:00.403Z,22.60
2023-01-26T15:27:07.788Z,22.70
2023-01-26T15:32:28.699Z,22.90
2023-01-26T15:37:35.779Z,23.00
2023-01-26T15:42:39.844Z,23.00
2023-01-26T15:47:44.198Z,22.90
2023-01-26T15:52:48.118Z,22.70
2023-01-26T15:57:52.154Z,22.90
2023-01-26T16:02:56.290Z,23.00
2023-01-26T16:08:00.206Z,23.20
2023-01-26T16:13:12.346Z,23.30
2023-01-26T16:18:16.977Z,23.30
2023-01-26T16:23:25.427Z,23.40
2023-01-26T16:28:29.445Z,23.40
2023-01-26T16:33:33.987Z,23.40
2023-01-26T16:38:39.165Z,23.40
2023-01-26T16:43:43.782Z,23.30
2023-01-26T16:48:47.660Z,23.30
2023-01-26T16:53:53.999Z,23.20
2023-01-26T16:58:58.129Z,23.20
2023-01-26T17:04:02.678Z,23.20
2023-01-26T17:09:07.119Z,23.10
2023-01-26T17:14:12.554Z,23.10
2023-01-26T17:19:17.013Z,23.00
2023-01-26T17:24:21.101Z,22.90
2023-01-26T17:29:25.244Z,22.90
2023-01-26T17:34:29.523Z,22.70
2023-01-26T17:39:33.945Z,22.70
2023-01-26T17:44:40.567Z,22.70
2023-01-26T17:49:45.108Z,22.90
2023-01-26T17:54:49.240Z,22.80
2023-01-26T17:59:55.535Z,22.80
2023-01-26T18:05:00.517Z,22.60
2023-01-26T18:10:06.316Z,22.50
2023-01-26T18:15:12.409Z,22.60
2023-01-26T18:20:18.548Z,22.50
2023-01-26T18:25:24.516Z,22.50
2023-01-26T18:30:32.347Z,22.40
2023-01-26T18:35:37.162Z,22.40
2023-01-26T18:40:42.729Z,22.40
2023-01-26T18:45:48.276Z,22.40
2023-01-26T18:50:53.853Z,22.40
2023-01-26T18:56:07.683Z,22.40
2023-01-26T19:01:17.744Z,22.40
2023-01-26T19:06:24.870Z,22.40
2023-01-26T19:11:33.311Z,22.40
2023-01-26T19:16:41.177Z,22.20
2023-01-26T19:21:48.277Z,22.30
2023-01-26T19:26:54.169Z,22.10
2023-01-26T19:32:00.250Z,21.90
2023-01-26T19:37:05.831Z,21.90
2023-01-26T19:42:11.649Z,21.80
2023-01-26T19:47:16.913Z,21.80
2023-01-26T19:52:26.681Z,21.90
2023-01-26T19:57:33.712Z,21.90
2023-01-26T20:02:39.922Z,21.80
2023-01-26T20:07:46.159Z,21.90
2023-01-26T20:12:52.278Z,21.80
2023-01-26T20:17:58.531Z,21.60
2023-01-26T20:23:06.123Z,21.60
2023-01-26T20:28:10.859Z,21.50
2023-01-26T20:33:16.075Z,21.40
2023-01-26T20:38:20.691Z,21.40
2023-01-26T20:43:27.229Z,21.70
2023-01-26T20:48:36.018Z,22.10
2023-01-26T20:53:42.481Z,22.50
2023-01-26T20:58:48.270Z,22.50
2023-01-26T21:03:53.504Z,22.70
2023-01-26T21:09:00.747Z,22.90
2023-01-26T21:14:05.821Z,23.00
2023-01-26T21:19:10.923Z,23.10
2023-01-26T21:24:15.324Z,23.20
2023-01-26T21:29:20.218Z,23.20
2023-01-26T21:34:24.575Z,23.20
2023-01-26T21:39:29.008Z,23.30
2023-01-26T21:44:53.640Z,23.30
2023-01-26T21:49:59.905Z,23.30
2023-01-26T21:55:04.765Z,23.10
2023-01-26T22:00:10.274Z,22.90
2023-01-26T22:05:14.446Z,22.70
2023-01-26T22:10:18.444Z,22.50
2023-01-26T22:15:22.520Z,22.50
2023-01-26T22:20:26.655Z,22.40
2023-01-26T22:25:30.677Z,22.30
2023-01-26T22:30:35.369Z,22.20
2023-01-26T22:35:39.365Z,22.20
2023-01-26T22:40:43.287Z,22.10
2023-01-26T22:45:47.257Z,22.00
2023-01-26T22:50:51.161Z,22.00
2023-01-26T22:55:55.587Z,21.90
2023-01-26T23:01:09.078Z,21.80
2023-01-26T23:06:15.217Z,21.80
2023-01-26T23:11:20.472Z,21.70
2023-01-26T23:16:25.890Z,21.60
2023-01-26T23:21:30.309Z,21.50
2023-01-26T23:26:34.019Z,21.40
2023-01-26T23:31:38.204Z,21.40
2023-01-26T23:36:42.589Z,21.40
2023-01-26T23:41:46.526Z,21.40
2023-01-26T23:46:50.697Z,21.30
2023-01-26T23:51:54.887Z,21.40
2023-01-26T23:56:58.934Z,21.60
